Create Tblcommutelog Verified Points Advance Search
| # | Trip ID | Id Commuter | Trip Date | Trip Num | Current Lat | Current Lng | Delta Distance | Current Time | Activity | Activity Confidence | Current Speed | |
|---|---|---|---|---|---|---|---|---|---|---|---|---|
| 72541 | 250806_767309_16652068_1624 | 767309 | (not set) | (not set) | 38.900924929864 | -77.041750119219 | 0.6017 | 2025-08-06 16:33:37 | on_foot | 100 | 0.254812377623 | |
| 72542 | 250806_784692_16652683_1603 | 784692 | (not set) | (not set) | 38.875795516488 | -77.220363110603 | 21.7555 | 2025-08-06 16:33:37 | in_vehicle | 100 | 12.704855740431 | |
| 72543 | 250806_766975_16633916_1621 | 766975 | (not set) | (not set) | 39.009035061958 | -77.097307353238 | 1.0105 | 2025-08-06 16:33:38 | in_vehicle | 100 | 5.8606846853291 | |
| 72544 | 250806_785264_16653381_1601 | 785264 | (not set) | (not set) | 38.932635391754 | -77.262448478475 | 14.7113 | 2025-08-06 16:33:38 | in_vehicle | 100 | 10.295314134487 | |
| 72545 | 250806_784654_16652634_1534 | 784654 | (not set) | (not set) | 38.957692282947 | -76.669263548124 | 22.037 | 2025-08-06 16:33:22 | in_vehicle | 100 | 13.880568991569 | |
| 72546 | 250806_784654_16652634_1534 | 784654 | (not set) | (not set) | 38.956763724329 | -76.673018830633 | 21.8248 | 2025-08-06 16:33:11 | in_vehicle | 100 | 13.518467191789 | |
| 72547 | 250806_784654_16652634_1534 | 784654 | (not set) | (not set) | 38.95777952747 | -76.668913111332 | 22.0568 | 2025-08-06 16:33:23 | in_vehicle | 100 | 13.902920954518 | |
| 72548 | 250806_781457_16649141_1527 | 781457 | (not set) | (not set) | 38.820022863706 | -77.433215275184 | 25.3316 | 2025-08-06 16:33:40 | in_vehicle | 100 | 5.6282242706554 | |
| 72549 | 250806_781457_16649141_1527 | 781457 | (not set) | (not set) | 38.820022863706 | -77.433215275184 | 25.3316 | 2025-08-06 16:33:40 | in_vehicle | 100 | 5.6282242706554 | |
| 72550 | 250806_784108_16652594_1628 | 784108 | (not set) | (not set) | 39.084893836098 | -77.173007504628 | 3.7219 | 2025-08-06 16:33:41 | in_vehicle | 100 | 15.798367412626 | |
| 72551 | 250806_765538_16632453_1606 | 765538 | (not set) | (not set) | 38.796779651186 | -77.145761029866 | 5.5611 | 2025-08-06 16:33:41 | in_vehicle | 100 | 12.700385347841 | |
| 72552 | 250806_765254_16632172_1604 | 765254 | (not set) | (not set) | 39.403845702085 | -76.619948439674 | 1.9987 | 2025-08-06 16:33:44 | on_bicycle | 100 | 2.3424857170957 | |
| 72553 | 250806_785147_16653236_1615 | 785147 | (not set) | (not set) | 38.938158216667 | -77.54111005 | 8.1985 | 2025-08-06 16:33:45 | in_vehicle | 100 | 4.4390998417481 | |
| 72554 | 250806_785447_16655759_1603 | 785447 | (not set) | (not set) | 39.017053734528 | -76.765623568328 | 16.1675 | 2025-08-06 16:33:46 | in_vehicle | 100 | 16.03976861248 | |
| 72555 | 250806_785447_16655759_1603 | 785447 | (not set) | (not set) | 39.017053734528 | -76.765623568328 | 16.1675 | 2025-08-06 16:33:46 | in_vehicle | 100 | 16.03976861248 | |
| 72556 | 250806_782322_16650013_1541 | 782322 | (not set) | (not set) | 39.169099689776 | -77.28267337125 | 14.8207 | 2025-08-06 16:33:46 | unknown | 100 | 7.6041377953812 | |
| 72557 | 250806_777870_16645497_1629 | 777870 | (not set) | (not set) | 38.885736297224 | -77.021161549398 | 1.2311 | 2025-08-06 16:33:46 | in_vehicle | 100 | -0.44703925898772 | |
| 72558 | 250806_777870_16645497_1629 | 777870 | (not set) | (not set) | 38.879364213345 | -77.033895634917 | 1.2311 | 2025-08-06 16:33:46 | in_vehicle | 100 | 7.2152136400619 | |
| 72559 | 250806_769852_16636925_1619 | 769852 | (not set) | (not set) | 38.910595240309 | -77.04442615516 | 0.6642 | 2025-08-06 16:33:46 | still | 33 | -0.44703925898772 | |
| 72560 | 250806_784948_16652992_1501 | 784948 | (not set) | (not set) | 39.06422593328 | -76.679134325868 | 32.9809 | 2025-08-06 16:33:47 | in_vehicle | 100 | 9.3922948313321 |